Gold Beach, OR

10:43 AM PST on December 02, 2016 (GMT -0800)
KF7MWX | | Change Station
Active Advisory: Beach Hazard Statement

Elev 56 ft 42.41 °N, 124.42 °W | Updated 1 second ago

Mostly Cloudy
Mostly Cloudy
53.2 °F
Feels Like 53.2 °F
N
1.6
Wind Variable Wind from North
Gusts 4.5 mph

Today
High -- | Low -- °F
--% Chance of Precip.
Yesterday
High -- | Low -- °F
Precip. -- in
Pressure 30.43 in
Visibility 10.0 miles
Clouds Mostly Cloudy 8500 ft
Mostly Cloudy 12000 ft
Dew Point 43 °F
Humidity 69%
Rainfall 0.00 in
Snow Depth Not available.
7:29 AM 4:45 PM
Waxing Crescent, 10% visible
METAR KBOK 021756Z AUTO 15003KT 10SM BKN085 BKN120 08/04 A3038 RMK AO2 SLP305 T00830039 10083 20039 51012
Pressure 30.43 in
Visibility 10.0 miles
Clouds Mostly Cloudy 8500 ft
Mostly Cloudy 12000 ft
Dew Point 43 °F
Humidity 69%
Rainfall 0.00 in
Snow Depth Not available.
7:29 AM 4:45 PM
Waxing Crescent, 10% visible
METAR KBOK 021756Z AUTO 15003KT 10SM BKN085 BKN120 08/04 A3038 RMK AO2 SLP305 T00830039 10083 20039 51012

10-Day Weather Forecast

Almanac

Astronomy

Dec. 02, 2016 Rise Set
Actual Time
Civil Twilight
Nautical Twilight
Astronomical Twilight
Moon
Length of Visible Light
Length of Day
Tomorrow will be .
, % of the Moon is Illuminated

Today's Extremes

State Highs State Lows

Community

WunderPhotos

Upload Photos

1,955,342 photos uploaded!

WunderBlog® & News

Nearby

Air Quality

  Air Quality AQ Index Pollutant
Not available.

Snow Depth

Station Depth Elevation

Earthquake Activity

City Distance Mag. Time & Date
Minimum magnitude displayed is 2.5.

Coastal Water Temperatures

Place Temperature

Stations

Nearby Weather Stations

Station Location Temp. Windchill Dew Point Humidity Wind Precip. Elev Updated Type
                   

Watches & Warnings

Beach Hazard Statement
Issued: 3:09 AM PST Dec. 2, 2016 – National Weather Service

... Beach hazards statement in effect from late tonight through
Saturday afternoon...

The National Weather Service in Medford has issued a beach
hazards statement for increased wave runup... which is in effect
from late tonight through Saturday afternoon.

* Hazards... northwest swell around 15 feet will produce 20 foot
breakers in the surf zone.

* Timing... large breakers are expected most of the day on Saturday
with highest potential for dangerous wave runup on beaches late
Saturday afternoon, around high tide.

* Locations include... all beaches, but especially west and
northwest facing beaches.

* Potential impacts... wave runup on beaches will be higher than
normal. Jetties and the surf zone will be especially dangerous.

* View the hazard area in detail at http://weather.Gov/Medford/hazard

Precautionary/preparedness actions...

A beach hazards statement is issued when threats such as rip
currents... longshore currents... sneaker waves and other hazards
create life-threatening conditions in the surf zone. Caution
should be used when in or near the water. Always keep an eye on
the ocean.